createdAt,value
2023-04-25T00:00:56.340Z,1.00
2023-04-25T00:03:26.489Z,99.90
2023-04-25T00:05:57.974Z,99.90
2023-04-25T00:08:27.980Z,99.90
2023-04-25T00:10:56.683Z,97.60
2023-04-25T00:13:26.836Z,99.90
2023-04-25T00:15:55.872Z,38.00
2023-04-25T00:18:24.839Z,99.90
2023-04-25T00:20:53.546Z,99.90
2023-04-25T00:23:22.251Z,99.90
2023-04-25T00:25:52.486Z,60.20
2023-04-25T00:28:21.216Z,99.90
2023-04-25T00:30:51.471Z,99.90
2023-04-25T00:33:20.179Z,99.90
2023-04-25T00:35:48.851Z,27.10
2023-04-25T00:38:17.892Z,1.00
2023-04-25T00:40:46.583Z,99.90
2023-04-25T00:43:15.300Z,1.00
2023-04-25T00:45:45.944Z,1.00
2023-04-25T00:48:16.777Z,99.90
2023-04-25T00:50:55.473Z,40.80
2023-04-25T00:53:25.001Z,99.90
2023-04-25T00:55:54.685Z,1.00
2023-04-25T00:58:24.154Z,93.10
2023-04-25T01:00:54.440Z,99.90
2023-04-25T01:03:25.149Z,1.00
2023-04-25T01:05:54.363Z,99.90
2023-04-25T01:08:25.913Z,1.00
2023-04-25T01:10:54.553Z,18.90
2023-04-25T01:13:23.379Z,99.90
2023-04-25T01:15:52.025Z,99.90
2023-04-25T01:18:22.339Z,97.50
2023-04-25T01:20:53.993Z,99.90
2023-04-25T01:23:24.556Z,99.90
2023-04-25T01:25:53.680Z,1.00
2023-04-25T01:28:23.265Z,99.90
2023-04-25T01:30:52.942Z,99.90
2023-04-25T01:33:23.462Z,99.90
2023-04-25T01:35:52.182Z,1.00
2023-04-25T01:38:20.861Z,1.00
2023-04-25T01:40:53.135Z,1.00
2023-04-25T01:43:22.046Z,1.00
2023-04-25T01:45:52.800Z,1.00
2023-04-25T01:48:21.642Z,1.00
2023-04-25T01:50:50.366Z,1.00
2023-04-25T01:53:19.046Z,1.00
2023-04-25T01:55:47.775Z,1.00
2023-04-25T01:58:18.030Z,1.00
2023-04-25T02:00:46.598Z,1.00
2023-04-25T02:03:15.477Z,1.00
2023-04-25T02:05:44.259Z,1.00
2023-04-25T02:08:12.874Z,1.00
2023-04-25T02:10:41.701Z,1.00
2023-04-25T02:13:10.454Z,1.00
2023-04-25T02:15:40.595Z,1.00
2023-04-25T02:18:11.525Z,1.00
2023-04-25T02:20:40.358Z,1.00
2023-04-25T02:23:09.080Z,1.00
2023-04-25T02:25:37.783Z,1.00
2023-04-25T02:28:06.764Z,1.00
2023-04-25T02:30:36.530Z,1.00
2023-04-25T02:33:06.698Z,40.70
2023-04-25T02:35:35.363Z,1.00
2023-04-25T02:38:04.011Z,1.00
2023-04-25T02:40:32.698Z,99.90
2023-04-25T02:43:01.358Z,1.00
2023-04-25T02:45:30.027Z,11.30
2023-04-25T02:47:58.748Z,99.90
2023-04-25T02:50:29.095Z,1.00
2023-04-25T02:52:57.803Z,99.90
2023-04-25T02:55:28.403Z,99.90
2023-04-25T02:57:57.683Z,99.90
2023-04-25T03:00:26.453Z,99.90
2023-04-25T03:02:55.290Z,99.90
2023-04-25T03:05:24.172Z,99.90
2023-04-25T03:07:54.418Z,99.90
2023-04-25T03:10:23.172Z,1.00
2023-04-25T03:12:51.853Z,99.90
2023-04-25T03:15:21.044Z,94.10
2023-04-25T03:17:49.752Z,99.90
2023-04-25T03:20:18.543Z,99.90
2023-04-25T03:22:47.338Z,1.00
2023-04-25T03:25:17.512Z,99.90
2023-04-25T03:27:46.179Z,1.00
2023-04-25T03:30:15.117Z,1.00
2023-04-25T03:32:43.963Z,1.00
2023-04-25T03:35:12.700Z,43.80
2023-04-25T03:37:42.023Z,21.20
2023-04-25T03:40:11.443Z,90.40
2023-04-25T03:42:43.486Z,1.00
2023-04-25T03:45:13.842Z,13.90
2023-04-25T03:47:42.543Z,1.00
2023-04-25T03:50:12.007Z,1.00
2023-04-25T03:52:40.725Z,1.00
2023-04-25T03:55:10.359Z,99.90
2023-04-25T03:57:40.601Z,1.00
2023-04-25T04:00:11.048Z,1.00
2023-04-25T04:02:41.959Z,9.50
2023-04-25T04:05:12.921Z,99.90
2023-04-25T04:07:43.839Z,55.20
2023-04-25T04:10:13.273Z,1.00
2023-04-25T04:12:43.402Z,99.90
2023-04-25T04:15:13.076Z,1.00
2023-04-25T04:17:41.963Z,58.40
2023-04-25T04:20:12.323Z,1.00
2023-04-25T04:22:41.117Z,99.90
2023-04-25T04:25:11.340Z,99.90
2023-04-25T04:27:40.358Z,99.90
2023-04-25T04:30:12.156Z,99.90
2023-04-25T04:32:40.957Z,1.00
2023-04-25T04:35:12.209Z,99.90
2023-04-25T04:37:40.975Z,99.90
2023-04-25T04:40:11.208Z,99.90
2023-04-25T04:42:40.026Z,1.00
2023-04-25T04:45:11.643Z,1.00
2023-04-25T04:47:42.017Z,1.00
2023-04-25T04:50:12.217Z,99.90
2023-04-25T04:52:41.294Z,99.90
2023-04-25T04:55:10.937Z,99.90
2023-04-25T04:57:39.868Z,99.90
2023-04-25T05:00:12.389Z,99.90
2023-04-25T05:02:41.495Z,99.90
2023-04-25T05:05:12.021Z,1.00
2023-04-25T05:07:40.783Z,1.00
2023-04-25T05:10:10.925Z,1.00
2023-04-25T05:12:39.669Z,1.00
2023-04-25T05:15:10.666Z,1.00
2023-04-25T05:17:40.448Z,1.00
2023-04-25T05:20:10.905Z,1.00
2023-04-25T05:22:39.895Z,1.00
2023-04-25T05:25:09.689Z,99.90
2023-04-25T05:27:38.581Z,1.00
2023-04-25T05:30:10.884Z,99.90
2023-04-25T05:32:39.923Z,99.90
2023-04-25T05:35:10.175Z,99.90
2023-04-25T05:37:39.264Z,99.90
2023-04-25T05:40:10.038Z,99.90
2023-04-25T05:42:39.031Z,99.90
2023-04-25T05:45:10.895Z,99.90
2023-04-25T05:47:40.042Z,99.90
2023-04-25T05:50:11.110Z,99.90
2023-04-25T05:52:39.916Z,99.90
2023-04-25T05:55:09.655Z,99.90
2023-04-25T05:57:38.377Z,99.90
2023-04-25T06:00:10.553Z,99.90
2023-04-25T06:02:39.479Z,99.90
2023-04-25T06:05:09.230Z,99.90
2023-04-25T06:07:38.295Z,99.90
2023-04-25T06:10:09.439Z,99.90
2023-04-25T06:12:39.587Z,72.10
2023-04-25T06:15:24.365Z,99.90
2023-04-25T06:17:56.556Z,51.40
2023-04-25T06:20:25.859Z,83.10
2023-04-25T06:22:57.264Z,52.70
2023-04-25T06:25:26.396Z,1.00
2023-04-25T06:27:55.277Z,1.00
2023-04-25T06:30:26.983Z,1.00
2023-04-25T06:32:55.825Z,1.00
2023-04-25T06:35:24.712Z,1.00
2023-04-25T06:37:53.458Z,1.00
2023-04-25T06:40:22.485Z,1.00
2023-04-25T06:42:51.315Z,1.00
2023-04-25T06:45:20.279Z,1.00
2023-04-25T06:47:50.669Z,1.00
2023-04-25T06:50:19.403Z,1.00
2023-04-25T06:52:48.221Z,1.00
2023-04-25T06:55:17.304Z,1.00
2023-04-25T06:57:46.192Z,1.00
2023-04-25T07:00:16.609Z,1.00
2023-04-25T07:02:45.551Z,1.00
2023-04-25T07:05:18.090Z,1.00
2023-04-25T07:07:47.861Z,1.00
2023-04-25T07:10:16.509Z,1.00
2023-04-25T07:12:45.194Z,1.00
2023-04-25T07:15:13.913Z,1.00
2023-04-25T07:17:42.728Z,1.00
2023-04-25T07:20:12.501Z,1.00
2023-04-25T07:22:42.726Z,1.00
2023-04-25T07:25:12.096Z,1.00
2023-04-25T07:27:44.276Z,1.00
2023-04-25T07:30:14.922Z,1.00
2023-04-25T07:32:43.889Z,1.00
2023-04-25T07:35:12.820Z,1.00
2023-04-25T07:37:43.930Z,1.00
2023-04-25T07:40:17.223Z,1.00
2023-04-25T07:42:46.093Z,1.00
2023-04-25T07:45:16.726Z,1.00
2023-04-25T07:47:46.408Z,1.00
2023-04-25T07:50:15.551Z,1.00
2023-04-25T07:52:46.878Z,1.00
2023-04-25T07:55:15.835Z,1.00
2023-04-25T07:57:44.632Z,1.00
2023-04-25T08:00:14.820Z,1.00
2023-04-25T08:02:43.755Z,1.00
2023-04-25T08:05:17.604Z,1.00
2023-04-25T08:07:49.295Z,1.00
2023-04-25T08:10:18.068Z,1.00
2023-04-25T08:12:47.068Z,1.00
2023-04-25T08:15:16.999Z,1.00
2023-04-25T08:17:46.904Z,1.00
2023-04-25T08:20:15.777Z,1.00
2023-04-25T08:22:44.856Z,1.00
2023-04-25T08:25:15.395Z,1.00
2023-04-25T08:27:44.133Z,1.00
2023-04-25T08:30:13.605Z,1.00
2023-04-25T08:32:42.528Z,1.00
2023-04-25T08:35:13.978Z,1.00
2023-04-25T08:37:43.075Z,1.00
2023-04-25T08:40:17.254Z,1.00
2023-04-25T08:42:46.088Z,1.00
2023-04-25T08:45:15.193Z,1.00
2023-04-25T08:47:46.176Z,1.00
2023-04-25T08:50:15.183Z,1.00
2023-04-25T08:52:47.924Z,1.00
2023-04-25T08:55:20.792Z,1.00
2023-04-25T08:57:50.628Z,1.00
2023-04-25T09:00:21.128Z,1.00
2023-04-25T09:02:50.643Z,1.00
2023-04-25T09:05:21.741Z,1.00
2023-04-25T09:07:51.053Z,1.00
2023-04-25T09:10:21.915Z,1.00
2023-04-25T09:13:06.570Z,1.00
2023-04-25T09:15:49.087Z,1.00
2023-04-25T09:18:29.992Z,1.00
2023-04-25T09:21:13.632Z,1.00
2023-04-25T09:23:48.220Z,1.00
2023-04-25T09:26:19.959Z,1.00
2023-04-25T09:28:49.448Z,1.00
2023-04-25T09:31:25.672Z,1.00
2023-04-25T09:34:12.418Z,1.00
2023-04-25T09:36:50.404Z,1.00
2023-04-25T09:39:26.447Z,1.00
2023-04-25T09:42:14.295Z,1.00
2023-04-25T09:44:59.475Z,1.00
2023-04-25T09:47:52.356Z,1.00
2023-04-25T09:50:28.442Z,1.00
2023-04-25T09:53:25.164Z,1.00
2023-04-25T09:56:06.641Z,1.00
2023-04-25T09:58:55.062Z,1.00
2023-04-25T10:01:42.435Z,1.00
2023-04-25T10:04:21.417Z,1.00
2023-04-25T10:07:07.260Z,1.00
2023-04-25T10:09:50.196Z,1.00
2023-04-25T10:12:37.961Z,1.00
2023-04-25T10:15:24.347Z,1.00
2023-04-25T10:18:03.601Z,1.00
2023-04-25T10:20:36.856Z,1.00
2023-04-25T10:23:27.323Z,1.00
2023-04-25T10:26:13.816Z,1.00
2023-04-25T10:29:06.024Z,1.00
2023-04-25T10:31:53.276Z,1.00
2023-04-25T10:34:53.646Z,1.00
2023-04-25T10:37:27.592Z,1.00
2023-04-25T10:40:02.778Z,1.00
2023-04-25T10:42:46.737Z,1.00
2023-04-25T10:45:28.877Z,1.00
2023-04-25T10:48:34.193Z,1.00
2023-04-25T10:54:51.452Z,1.00
2023-04-25T10:57:56.069Z,1.00
2023-04-25T11:00:38.521Z,1.00
2023-04-25T11:03:45.470Z,1.00
2023-04-25T11:06:29.796Z,1.00
2023-04-25T11:09:44.036Z,1.00
2023-04-25T11:12:23.806Z,1.00
2023-04-25T11:15:21.220Z,1.00
2023-04-25T11:18:03.924Z,1.00
2023-04-25T11:20:50.057Z,1.00
2023-04-25T11:23:30.853Z,1.00
2023-04-25T11:26:15.835Z,1.00
2023-04-25T11:29:10.256Z,1.00
2023-04-25T11:31:44.764Z,1.00
2023-04-25T11:34:38.504Z,1.00
2023-04-25T11:37:14.485Z,1.00
2023-04-25T11:39:51.863Z,1.00
2023-04-25T11:42:37.697Z,1.00
2023-04-25T11:45:29.171Z,1.00
2023-04-25T11:48:18.394Z,1.00
2023-04-25T11:51:02.094Z,1.00
2023-04-25T11:53:39.250Z,1.00
2023-04-25T11:56:28.104Z,1.00
2023-04-25T11:59:07.919Z,1.00
2023-04-25T12:01:48.200Z,1.00
2023-04-25T12:04:29.610Z,1.00
2023-04-25T12:07:07.430Z,1.00
2023-04-25T12:10:00.293Z,1.00
2023-04-25T12:12:54.319Z,1.00
2023-04-25T12:15:33.849Z,1.00
2023-04-25T12:18:10.094Z,1.00
2023-04-25T12:20:51.762Z,1.00
2023-04-25T12:23:37.238Z,1.00
2023-04-25T12:26:18.893Z,1.00
2023-04-25T12:29:03.803Z,1.00
2023-04-25T12:31:39.834Z,1.00
2023-04-25T12:34:17.853Z,1.00
2023-04-25T12:37:02.011Z,1.00
2023-04-25T12:39:41.857Z,1.00
2023-04-25T12:42:21.498Z,1.00
2023-04-25T12:45:02.789Z,1.00
2023-04-25T12:47:41.883Z,1.00
2023-04-25T12:50:52.187Z,1.00
2023-04-25T12:53:27.603Z,1.00
2023-04-25T12:55:59.768Z,1.00
2023-04-25T12:58:42.766Z,1.00
2023-04-25T13:01:23.727Z,1.00
2023-04-25T13:04:02.656Z,1.00
2023-04-25T13:06:54.581Z,1.00
2023-04-25T13:09:40.257Z,1.00
2023-04-25T13:12:19.465Z,1.00
2023-04-25T13:14:53.255Z,1.00
2023-04-25T13:17:28.631Z,1.00
2023-04-25T13:20:07.204Z,1.00
2023-04-25T13:22:54.693Z,1.00
2023-04-25T13:25:30.474Z,1.00
2023-04-25T13:28:06.025Z,1.00
2023-04-25T13:30:45.675Z,1.00
2023-04-25T13:33:23.037Z,1.00
2023-04-25T13:36:02.829Z,1.00
2023-04-25T13:38:46.408Z,1.00
2023-04-25T13:41:20.959Z,1.00
2023-04-25T13:44:15.160Z,1.00
2023-04-25T13:47:07.917Z,1.00
2023-04-25T13:49:44.540Z,1.00
2023-04-25T13:52:19.755Z,1.00
2023-04-25T13:54:56.777Z,1.00
2023-04-25T13:57:31.917Z,1.00
2023-04-25T14:00:27.077Z,1.00
2023-04-25T14:03:10.644Z,1.00
2023-04-25T14:06:06.887Z,1.00
2023-04-25T14:08:47.520Z,1.00
2023-04-25T14:15:00.712Z,1.00
2023-04-25T14:17:39.868Z,1.00
2023-04-25T14:20:32.226Z,1.00
2023-04-25T14:23:18.334Z,1.00
2023-04-25T14:25:52.097Z,1.00
2023-04-25T14:28:34.001Z,1.00
2023-04-25T14:31:12.329Z,1.00
2023-04-25T14:34:12.886Z,1.00
2023-04-25T14:37:03.135Z,1.00
2023-04-25T14:39:52.314Z,1.00
2023-04-25T14:42:24.854Z,1.00
2023-04-25T14:44:57.416Z,1.00
2023-04-25T14:47:33.313Z,1.00
2023-04-25T14:50:19.057Z,1.00
2023-04-25T14:52:58.972Z,1.00
2023-04-25T14:55:43.984Z,1.00
2023-04-25T14:58:33.624Z,1.00
2023-04-25T15:01:12.678Z,1.00
2023-04-25T15:03:49.514Z,1.00
2023-04-25T15:10:00.500Z,1.00
2023-04-25T15:12:33.718Z,1.00
2023-04-25T15:15:36.988Z,1.00
2023-04-25T15:22:20.464Z,1.00
2023-04-25T15:30:03.216Z,1.00
2023-04-25T15:33:04.548Z,1.00
2023-04-25T15:35:40.414Z,1.00
2023-04-25T15:38:50.492Z,1.00
2023-04-25T15:42:06.293Z,1.00
2023-04-25T15:44:47.943Z,1.00
2023-04-25T15:47:53.274Z,1.00
2023-04-25T15:50:48.862Z,1.00
2023-04-25T15:57:00.932Z,1.00
2023-04-25T15:59:45.861Z,1.00
2023-04-25T16:03:05.526Z,1.00
2023-04-25T16:06:33.008Z,1.00
2023-04-25T16:09:36.713Z,1.00
2023-04-25T16:12:16.670Z,1.00
2023-04-25T16:15:04.229Z,1.00
2023-04-25T16:17:59.426Z,1.00
2023-04-25T16:20:38.141Z,1.00
2023-04-25T16:23:48.525Z,1.00
2023-04-25T16:27:19.250Z,1.00
2023-04-25T16:29:55.999Z,1.00
2023-04-25T16:32:50.268Z,1.00
2023-04-25T16:35:39.995Z,1.00
2023-04-25T16:38:26.144Z,1.00
2023-04-25T16:41:15.644Z,1.00
2023-04-25T16:44:42.733Z,1.00
2023-04-25T16:47:34.076Z,1.00
2023-04-25T16:50:24.839Z,1.00
2023-04-25T16:53:20.218Z,1.00
2023-04-25T16:56:20.942Z,1.00
2023-04-25T16:59:04.725Z,1.00
2023-04-25T17:02:08.076Z,1.00
2023-04-25T17:04:54.034Z,1.00
2023-04-25T17:10:42.723Z,12.90
2023-04-25T17:13:35.706Z,99.90
2023-04-25T17:19:58.040Z,99.90
2023-04-25T17:34:23.475Z,99.90
2023-04-25T17:37:02.215Z,99.90
2023-04-25T17:46:10.666Z,99.90
2023-04-25T17:49:12.392Z,99.90
2023-04-25T17:52:01.057Z,99.90
2023-04-25T17:55:35.701Z,99.90
2023-04-25T17:58:20.309Z,99.90
2023-04-25T18:04:08.164Z,99.90
2023-04-25T18:06:47.315Z,99.90
2023-04-25T18:09:32.370Z,99.90
2023-04-25T18:14:49.857Z,99.90
2023-04-25T18:17:31.692Z,99.90
2023-04-25T18:31:23.955Z,1.00
2023-04-25T18:33:56.892Z,99.90
2023-04-25T18:40:56.429Z,99.90
2023-04-25T18:47:20.772Z,99.90
2023-04-25T18:49:53.327Z,99.90
2023-04-25T18:52:41.995Z,99.90
2023-04-25T19:00:15.171Z,99.90
2023-04-25T19:02:54.446Z,99.90
2023-04-25T19:05:57.974Z,99.90
2023-04-25T19:09:14.733Z,99.90
2023-04-25T19:11:51.817Z,99.90
2023-04-25T19:14:22.426Z,99.90
2023-04-25T19:16:54.458Z,99.90
2023-04-25T19:19:25.730Z,99.90
2023-04-25T19:21:55.961Z,99.90
2023-04-25T19:24:26.609Z,99.90
2023-04-25T19:26:57.491Z,99.90
2023-04-25T19:29:30.371Z,99.90
2023-04-25T19:32:04.361Z,99.90
2023-04-25T19:34:35.572Z,99.90
2023-04-25T19:37:05.820Z,99.90
2023-04-25T19:39:38.049Z,99.90
2023-04-25T19:42:12.994Z,99.90
2023-04-25T19:44:48.014Z,99.90
2023-04-25T19:47:18.793Z,99.90
2023-04-25T19:49:49.802Z,99.90
2023-04-25T19:52:19.012Z,99.90
2023-04-25T19:54:50.219Z,99.90
2023-04-25T19:57:20.496Z,92.30
2023-04-25T19:59:49.931Z,99.90
2023-04-25T20:02:19.238Z,57.50
2023-04-25T20:04:50.256Z,21.50
2023-04-25T20:07:23.294Z,8.50
2023-04-25T20:09:54.310Z,6.90
2023-04-25T20:12:23.487Z,1.00
2023-04-25T20:14:53.376Z,1.00
2023-04-25T20:17:23.706Z,1.00
2023-04-25T20:19:54.703Z,1.00
2023-04-25T20:22:24.304Z,2.50
2023-04-25T20:24:55.269Z,1.00
2023-04-25T20:27:24.446Z,1.00
2023-04-25T20:30:06.369Z,1.00
2023-04-25T20:32:36.594Z,1.70
2023-04-25T20:35:16.887Z,1.00
2023-04-25T20:37:47.187Z,1.00
2023-04-25T20:40:17.570Z,1.00
2023-04-25T20:42:48.123Z,1.00
2023-04-25T20:45:16.909Z,1.80
2023-04-25T20:47:45.908Z,1.00
2023-04-25T20:50:14.711Z,1.00
2023-04-25T20:52:43.524Z,1.00
2023-04-25T20:55:13.706Z,1.00
2023-04-25T20:57:46.699Z,1.00
2023-04-25T21:00:18.950Z,1.00
2023-04-25T21:02:48.306Z,1.00
2023-04-25T21:05:17.249Z,32.50
2023-04-25T21:07:47.083Z,30.00
2023-04-25T21:10:16.243Z,1.90
2023-04-25T21:12:49.598Z,20.70
2023-04-25T21:15:20.776Z,27.10
2023-04-25T21:17:49.882Z,56.80
2023-04-25T21:20:20.555Z,50.10
2023-04-25T21:22:53.497Z,27.60
2023-04-25T21:25:29.460Z,12.10
2023-04-25T21:28:00.593Z,19.40
2023-04-25T21:30:29.547Z,21.80
2023-04-25T21:32:58.474Z,13.00
2023-04-25T21:35:27.477Z,80.60
2023-04-25T21:37:58.621Z,99.90
2023-04-25T21:40:28.852Z,94.30
2023-04-25T21:42:59.269Z,97.20
2023-04-25T21:45:29.343Z,95.30
2023-04-25T21:47:58.302Z,99.90
2023-04-25T21:50:27.603Z,99.90
2023-04-25T21:52:59.127Z,99.90
2023-04-25T21:55:28.285Z,99.90
2023-04-25T21:57:58.646Z,99.90
2023-04-25T22:00:27.961Z,99.90
2023-04-25T22:02:56.976Z,99.90
2023-04-25T22:05:27.208Z,93.10
2023-04-25T22:07:57.851Z,97.10
2023-04-25T22:10:26.711Z,99.90
2023-04-25T22:12:56.128Z,99.90
2023-04-25T22:15:26.617Z,99.90
2023-04-25T22:18:18.066Z,99.90
2023-04-25T22:20:46.757Z,99.90
2023-04-25T22:23:15.544Z,99.90
2023-04-25T22:25:44.175Z,99.90
2023-04-25T22:28:13.285Z,99.90
2023-04-25T22:30:44.047Z,99.90
2023-04-25T22:33:34.856Z,99.90
2023-04-25T22:36:04.194Z,99.90
2023-04-25T22:38:33.152Z,99.90
2023-04-25T22:41:02.058Z,99.90
2023-04-25T22:43:30.927Z,99.90
2023-04-25T22:46:02.627Z,99.90
2023-04-25T22:48:31.608Z,99.90
2023-04-25T22:51:06.910Z,99.90
2023-04-25T22:53:37.720Z,99.90
2023-04-25T22:56:06.709Z,99.90
2023-04-25T22:58:35.508Z,99.90
2023-04-25T23:01:07.806Z,99.90
2023-04-25T23:03:36.752Z,99.90
2023-04-25T23:06:06.221Z,99.90
2023-04-25T23:08:35.508Z,99.90
2023-04-25T23:11:08.261Z,99.90
2023-04-25T23:13:37.851Z,1.00
2023-04-25T23:16:09.218Z,1.00
2023-04-25T23:18:38.346Z,1.00
2023-04-25T23:21:09.206Z,1.00
2023-04-25T23:23:38.202Z,1.00
2023-04-25T23:26:10.034Z,99.90
2023-04-25T23:28:41.605Z,1.00
2023-04-25T23:31:12.840Z,1.00
2023-04-25T23:33:41.750Z,1.00
2023-04-25T23:36:18.212Z,1.00
2023-04-25T23:38:46.987Z,99.90
2023-04-25T23:41:15.959Z,99.90
2023-04-25T23:43:44.593Z,99.90
2023-04-25T23:46:14.920Z,99.90
2023-04-25T23:48:43.539Z,99.90
2023-04-25T23:51:12.285Z,99.90
2023-04-25T23:53:41.596Z,99.90
2023-04-25T23:56:11.207Z,99.90
2023-04-25T23:58:39.891Z,99.90
